Time;durP1;ratioP1;P1;durP2;ratioP2;P2;SDS_P1;SDS_P2;PMS_P1;PMS_P2;Temp;Humidity;BMP_temperature;BMP_pressure;BME280_temperature;BME280_humidity;BME280_pressure;Samples;Min_cycle;Max_cycle;Signal;HPM_P1;HPM_P2
2021/03/31 00:01:30;282654.00;0.94;488.10;42856.00;0.14;74.83;;;;;16.90;1.00;;;;;;2273205;61;1382;-90
2021/03/31 00:03:56;188154.00;0.63;325.53;0.00;0.00;0.62;;;;;16.60;1.00;;;;;;2273208;61;931;-90
2021/03/31 00:06:23;118145.00;0.39;204.88;0.00;0.00;0.62;;;;;16.40;1.00;;;;;;2273170;61;1039;-89
2021/03/31 00:08:49;292491.00;0.97;505.01;0.00;0.00;0.62;;;;;15.90;1.00;;;;;;2273135;61;1993;-89
2021/03/31 00:11:17;223242.00;0.74;385.92;0.00;0.00;0.62;;;;;15.80;1.00;;;;;;2273009;61;1418;-89
2021/03/31 00:13:44;250571.00;0.84;432.93;0.00;0.00;0.62;;;;;15.40;1.00;;;;;;2273126;61;942;-88
2021/03/31 00:16:11;234704.00;0.78;405.64;0.00;0.00;0.62;;;;;15.90;1.00;;;;;;2273115;61;1017;-89
2021/03/31 00:18:38;212127.00;0.71;366.80;0.00;0.00;0.62;;;;;16.10;1.00;;;;;;2273137;61;1054;-89
2021/03/31 00:21:04;157812.00;0.53;273.27;0.00;0.00;0.62;;;;;16.30;1.00;;;;;;2272967;61;1856;-90
2021/03/31 00:23:32;134008.00;0.45;232.24;0.00;0.00;0.62;;;;;16.40;1.00;;;;;;2273091;61;1557;-88
2021/03/31 00:25:59;270405.00;0.90;467.04;0.00;0.00;0.62;;;;;16.60;1.00;;;;;;2273107;61;1099;-89
2021/03/31 00:28:26;255930.00;0.85;442.15;0.00;0.00;0.62;;;;;16.40;1.00;;;;;;2273019;61;1988;-89
2021/03/31 00:30:54;398442.00;1.33;687.13;106701.00;0.36;185.14;;;;;16.60;1.00;;;;;;2273099;61;1305;-89
2021/03/31 00:33:21;275998.00;0.92;476.66;0.00;0.00;0.62;;;;;16.70;1.00;;;;;;2272934;61;1109;-89
2021/03/31 00:35:48;391969.00;1.31;676.00;80010.00;0.27;139.05;;;;;16.40;1.00;;;;;;2273087;61;1147;-89
2021/03/31 00:38:15;350393.00;1.17;604.54;82535.00;0.28;143.42;;;;;16.70;1.00;;;;;;2273062;61;1854;-90
2021/03/31 00:40:43;393335.00;1.31;678.35;79919.00;0.27;138.90;;;;;16.70;1.00;;;;;;2273073;61;1373;-89
2021/03/31 00:43:10;352089.00;1.17;607.45;62074.00;0.21;108.06;;;;;16.50;1.00;;;;;;2273042;61;980;-89
2021/03/31 00:45:37;432718.00;1.44;746.06;83607.00;0.28;145.27;;;;;16.30;1.00;;;;;;2273100;61;892;-89
2021/03/31 00:48:04;518831.00;1.73;894.25;76758.00;0.26;133.44;;;;;16.30;1.00;;;;;;2272985;61;1996;-89
2021/03/31 00:50:31;368388.00;1.23;635.47;85883.00;0.29;149.20;;;;;16.40;1.00;;;;;;2273053;61;1425;-88
2021/03/31 00:52:59;351074.00;1.17;605.71;74154.00;0.25;128.94;;;;;16.40;1.00;;;;;;2273040;61;1134;-88
2021/03/31 00:55:29;441974.00;1.47;761.98;79009.00;0.26;137.33;;;;;16.40;1.00;;;;;;2272424;61;1064;-88
2021/03/31 00:57:56;565040.00;1.88;973.89;85440.00;0.28;148.43;;;;;16.20;1.00;;;;;;2272999;61;1434;-87
2021/03/31 01:00:23;308051.00;1.03;531.76;89306.00;0.30;155.11;;;;;15.90;1.00;;;;;;2272949;61;1582;-87
2021/03/31 01:02:53;486109.00;1.62;837.91;84079.00;0.28;146.08;;;;;15.90;1.00;;;;;;2273009;61;1009;-88
2021/03/31 01:05:23;365936.00;1.22;631.25;86112.00;0.29;149.59;;;;;15.80;1.00;;;;;;2272988;61;1000;-88
2021/03/31 01:07:50;538113.00;1.79;927.47;85403.00;0.28;148.37;;;;;16.00;1.00;;;;;;2272975;61;1919;-88
2021/03/31 01:10:26;435229.00;1.45;750.38;84221.00;0.28;146.33;;;;;16.00;1.00;;;;;;2272899;61;1633;-88
2021/03/31 01:13:18;573291.00;1.91;988.12;83812.00;0.28;145.62;;;;;15.90;1.00;;;;;;2273002;61;993;-89
2021/03/31 01:15:51;445815.00;1.49;768.58;0.00;0.00;0.62;;;;;15.70;1.00;;;;;;2272999;61;1157;-88
2021/03/31 01:18:28;593927.00;1.98;1023.74;100921.00;0.34;175.16;;;;;15.60;1.00;;;;;;2272914;61;1604;-89
2021/03/31 01:21:40;625964.00;2.09;1079.07;81198.00;0.27;141.11;;;;;15.30;1.00;;;;;;2272895;61;1568;-88
2021/03/31 01:24:36;346576.00;1.16;597.98;0.00;0.00;0.62;;;;;15.40;1.00;;;;;;2272893;61;1625;-89
2021/03/31 01:27:10;231585.00;0.77;400.28;0.00;0.00;0.62;;;;;15.80;1.00;;;;;;2272901;61;1130;-89
2021/03/31 01:30:10;528986.00;1.76;911.74;85885.00;0.29;149.20;;;;;16.00;1.00;;;;;;2272916;61;1928;-88
2021/03/31 01:33:08;664395.00;2.21;1145.55;85041.00;0.28;147.74;;;;;15.80;1.00;;;;;;2272824;61;1635;-88
2021/03/31 01:35:36;421796.00;1.41;727.28;0.00;0.00;0.62;;;;;15.60;1.00;;;;;;2272769;61;1772;-89
2021/03/31 01:38:06;669007.00;2.23;1153.53;96022.00;0.32;166.70;;;;;15.50;1.00;;;;;;2272863;61;963;-89
2021/03/31 01:40:38;665130.00;2.22;1146.82;75579.00;0.25;131.40;;;;;15.50;1.00;;;;;;2272739;61;1331;-89
2021/03/31 01:43:08;733906.00;2.45;1266.09;79709.00;0.27;138.53;;;;;15.60;1.00;;;;;;2272843;61;1123;-89
2021/03/31 01:45:38;852281.00;2.84;1472.46;91898.00;0.31;159.58;;;;;15.60;1.00;;;;;;2272818;61;965;-89
2021/03/31 01:48:08;1119466.00;3.73;1945.27;133864.00;0.45;231.99;;;;;15.50;1.00;;;;;;2272795;61;1986;-89
2021/03/31 01:50:38;868665.00;2.90;1501.15;121880.00;0.41;211.33;;;;;15.10;1.00;;;;;;2272835;61;1395;-89
2021/03/31 01:53:05;632232.00;2.11;1089.91;23758.00;0.08;41.78;;;;;15.00;1.00;;;;;;2272747;61;974;-89
2021/03/31 01:55:33;819051.00;2.73;1414.37;77351.00;0.26;134.46;;;;;14.90;1.00;;;;;;2272693;61;1297;-89
2021/03/31 01:58:03;503549.00;1.68;867.93;90586.00;0.30;157.32;;;;;14.80;1.00;;;;;;2272883;61;1027;-88
2021/03/31 02:00:32;630954.00;2.10;1087.70;87934.00;0.29;152.74;;;;;14.80;1.00;;;;;;2272790;61;1419;-88
2021/03/31 02:03:00;665792.00;2.22;1147.97;44274.00;0.15;77.28;;;;;14.90;1.00;;;;;;2272855;61;1014;-87
2021/03/31 02:05:29;449928.00;1.50;775.66;0.00;0.00;0.62;;;;;15.20;1.00;;;;;;2272660;61;1122;-89
2021/03/31 02:07:57;512396.00;1.71;883.17;0.00;0.00;0.62;;;;;15.40;1.00;;;;;;2272723;61;1914;-88
2021/03/31 02:10:28;623338.00;2.08;1074.53;0.00;0.00;0.62;;;;;15.30;1.00;;;;;;2272713;61;1607;-87
2021/03/31 02:12:56;622080.00;2.07;1072.36;0.00;0.00;0.62;;;;;14.90;1.00;;;;;;2272797;61;1096;-87
2021/03/31 02:15:27;506667.00;1.69;873.30;0.00;0.00;0.62;;;;;14.40;1.00;;;;;;2272751;61;1067;-88
2021/03/31 02:17:56;816263.00;2.72;1409.50;34305.00;0.11;60.03;;;;;14.30;1.00;;;;;;2272777;61;1052;-87
2021/03/31 02:20:24;407316.00;1.36;702.38;0.00;0.00;0.62;;;;;14.10;1.00;;;;;;2272658;61;1539;-88
2021/03/31 02:22:52;778715.00;2.60;1344.03;12042.00;0.04;21.49;;;;;13.70;1.00;;;;;;2272726;61;1646;-88
2021/03/31 02:25:20;713397.00;2.38;1230.48;0.00;0.00;0.62;;;;;13.60;1.00;;;;;;2272709;61;1447;-89
2021/03/31 02:27:47;725284.00;2.42;1251.11;0.00;0.00;0.62;;;;;13.70;1.00;;;;;;2272659;61;2022;-88
2021/03/31 02:30:17;792459.00;2.64;1367.98;43747.00;0.15;76.37;;;;;13.70;1.00;;;;;;2272713;61;1280;-90
2021/03/31 02:32:48;779940.00;2.60;1346.16;62520.00;0.21;108.83;;;;;13.80;1.00;;;;;;2272688;61;1591;-89
2021/03/31 02:35:16;442954.00;1.48;763.66;0.00;0.00;0.62;;;;;13.90;1.00;;;;;;2272765;61;1031;-88
2021/03/31 02:37:44;591211.00;1.97;1019.05;0.00;0.00;0.62;;;;;14.00;1.00;;;;;;2272720;61;1087;-89
2021/03/31 02:40:13;517986.00;1.73;892.80;0.00;0.00;0.62;;;;;14.00;1.00;;;;;;2272672;61;1604;-87
2021/03/31 02:42:43;819019.00;2.73;1414.31;0.00;0.00;0.62;;;;;14.00;1.00;;;;;;2272683;61;1016;-89
2021/03/31 02:47:39;305970.00;1.02;528.18;0.00;0.00;0.62;;;;;13.80;1.00;;;;;;2499471;55;3606;31
2021/03/31 02:52:34;286383.00;0.95;494.51;0.00;0.00;0.62;;;;;13.70;1.00;;;;;;2501182;55;3580;31
2021/03/31 02:55:01;478516.00;1.60;824.84;18498.00;0.06;32.67;;;;;13.90;1.00;;;;;;2500597;55;3729;31
2021/03/31 02:57:27;186497.00;0.62;322.68;0.00;0.00;0.62;;;;;13.70;1.00;;;;;;2503922;55;3972;31
2021/03/31 03:04:51;346581.00;1.16;597.98;0.00;0.00;0.62;;;;;13.20;1.00;;;;;;2500560;55;3594;31
2021/03/31 03:17:15;241566.00;0.81;417.44;0.00;0.00;0.62;;;;;13.60;1.00;;;;;;2501036;55;3591;31
2021/03/31 04:19:01;304935.00;1.02;526.40;0.00;0.00;0.62;;;;;12.10;1.00;;;;;;2500765;55;3660;31
2021/03/31 04:23:55;483579.00;1.61;833.56;0.00;0.00;0.62;;;;;11.90;1.00;;;;;;2501122;55;3733;31
2021/03/31 04:41:22;200922.00;0.67;347.51;0.00;0.00;0.62;;;;;12.40;1.00;;;;;;2501539;40;3459;31
2021/03/31 05:03:31;712.00;0.00;1.85;0.00;0.00;0.62;;;;;12.70;1.00;;;;;;2500979;40;3581;31
2021/03/31 05:08:25;77049.00;0.26;133.94;0.00;0.00;0.62;;;;;13.70;1.00;;;;;;2500721;41;3461;31
2021/03/31 05:13:19;31604.00;0.11;55.36;0.00;0.00;0.62;;;;;13.80;1.00;;;;;;2500970;40;3495;31
2021/03/31 05:20:42;132666.00;0.44;229.93;0.00;0.00;0.62;;;;;12.30;1.00;;;;;;2500733;40;3481;31
2021/03/31 05:47:50;57534.00;0.19;100.21;0.00;0.00;0.62;;;;;15.40;1.00;;;;;;2501646;55;3633;31
2021/03/31 06:10:24;86514.00;0.29;150.29;0.00;0.00;0.62;;;;;18.10;1.00;;;;;;2520970;40;3520;31
2021/03/31 06:17:49;59136.00;0.20;102.98;0.00;0.00;0.62;;;;;19.30;1.00;;;;;;2281960;61;1315;-90
2021/03/31 06:20:44;25483.00;0.08;44.76;0.00;0.00;0.62;;;;;20.00;1.00;;;;;;2275883;61;889;-88
2021/03/31 06:28:08;35180.00;0.12;61.55;0.00;0.00;0.62;;;;;19.00;1.00;;;;;;2281806;61;2003;-90
2021/03/31 06:40:39;53925.00;0.18;93.97;0.00;0.00;0.62;;;;;17.60;1.00;;;;;;2273959;61;898;-90
2021/03/31 06:48:07;217714.00;0.73;376.41;13905.00;0.05;24.71;;;;;18.90;1.00;;;;;;2285982;61;1936;-89
2021/03/31 07:10:26;97006.00;0.32;168.40;31470.00;0.10;55.13;;;;;22.90;1.00;;;;;;2282147;61;911;-91
2021/03/31 07:17:54;88452.00;0.29;153.63;0.00;0.00;0.62;;;;;23.70;1.00;;;;;;2285960;61;1321;-91
2021/03/31 07:22:48;80563.00;0.27;140.01;0.00;0.00;0.62;;;;;23.00;1.00;;;;;;2287692;61;1297;-91
2021/03/31 07:25:18;27078.00;0.09;47.53;0.00;0.00;0.62;;;;;22.40;1.00;;;;;;2511831;55;3858;31
2021/03/31 07:32:51;0.00;0.00;0.62;0.00;0.00;0.62;;;;;21.50;1.00;;;;;;2283560;61;943;-91
2021/03/31 07:40:18;89073.00;0.30;154.71;0.00;0.00;0.62;;;;;22.10;1.00;;;;;;2283165;61;943;-91
2021/03/31 09:16:35;302053.00;1.01;521.45;0.00;0.00;0.62;;;;;22.00;1.00;;;;;;2282809;60;1483;-85
2021/03/31 09:19:06;311271.00;1.04;537.29;0.00;0.00;0.62;;;;;22.30;1.00;;;;;;2280826;60;977;-88
2021/03/31 09:21:36;610567.00;2.04;1052.47;0.00;0.00;0.62;;;;;22.30;1.00;;;;;;2280023;60;1027;-90
2021/03/31 15:33:24;141996.00;0.47;246.01;0.00;0.00;0.62;;;;;26.70;1.00;;;;;;2270041;61;1256;-90
2021/03/31 15:35:50;164668.00;0.55;285.08;48533.00;0.16;84.65;;;;;26.50;1.00;;;;;;2268588;61;1651;-89
2021/03/31 15:38:17;98944.00;0.33;171.75;0.00;0.00;0.62;;;;;26.10;1.00;;;;;;2268670;61;1161;-89
2021/03/31 15:40:43;326089.00;1.09;562.76;23056.00;0.08;40.56;;;;;25.90;1.00;;;;;;2268528;61;1054;-89
2021/03/31 15:43:10;209230.00;0.70;361.81;0.00;0.00;0.62;;;;;25.90;1.00;;;;;;2268504;61;1683;-89
2021/03/31 15:45:39;184399.00;0.61;319.06;0.00;0.00;0.62;;;;;26.10;1.00;;;;;;2268649;61;1386;-89
2021/03/31 15:48:08;70705.00;0.24;122.98;0.00;0.00;0.62;;;;;26.00;1.00;;;;;;2268655;61;1118;-90
2021/03/31 15:50:36;109921.00;0.37;190.69;23757.00;0.08;41.78;;;;;25.80;1.00;;;;;;2268605;61;1930;-91
2021/03/31 15:53:02;181911.00;0.61;314.78;0.00;0.00;0.62;;;;;25.90;1.00;;;;;;2268711;61;895;-89
2021/03/31 15:55:29;60049.00;0.20;104.56;0.00;0.00;0.62;;;;;26.00;1.00;;;;;;2263960;61;1313;-90
2021/03/31 15:57:55;173290.00;0.58;299.93;0.00;0.00;0.62;;;;;26.00;1.00;;;;;;2264080;61;999;-90
2021/03/31 16:00:25;126182.00;0.42;218.75;0.00;0.00;0.62;;;;;25.80;1.00;;;;;;2264200;61;1014;-89
2021/03/31 16:03:01;372573.00;1.24;642.66;91844.00;0.31;159.49;;;;;25.90;1.00;;;;;;2264020;61;1749;-89
2021/03/31 16:05:28;122637.00;0.41;212.63;0.00;0.00;0.62;;;;;25.90;1.00;;;;;;2264065;61;1700;-90
2021/03/31 16:07:56;83766.00;0.28;145.54;0.00;0.00;0.62;;;;;25.80;1.00;;;;;;2264045;61;1708;-90
2021/03/31 16:10:26;203786.00;0.68;352.44;0.00;0.00;0.62;;;;;25.70;1.00;;;;;;2263971;61;1996;-91
2021/03/31 16:12:54;225432.00;0.75;389.69;0.00;0.00;0.62;;;;;25.50;1.00;;;;;;2253929;61;968;-90
2021/03/31 16:15:21;203894.00;0.68;352.63;0.00;0.00;0.62;;;;;25.50;1.00;;;;;;2259980;61;1626;-90
2021/03/31 16:17:47;149852.00;0.50;259.55;0.00;0.00;0.62;;;;;25.60;1.00;;;;;;2259780;61;1157;-89
2021/03/31 16:20:15;142578.00;0.48;247.01;0.00;0.00;0.62;;;;;25.30;1.00;;;;;;2260049;61;1081;-90
2021/03/31 16:22:42;219777.00;0.73;379.96;0.00;0.00;0.62;;;;;25.20;1.00;;;;;;2260039;61;1593;-89
2021/03/31 16:25:11;263990.00;0.88;456.01;0.00;0.00;0.62;;;;;25.30;1.00;;;;;;2259999;61;1304;-89
2021/03/31 16:27:59;391308.00;1.30;674.86;0.00;0.00;0.62;;;;;25.30;1.00;;;;;;2259989;61;1704;-89
2021/03/31 17:27:58;690072.00;2.30;1190.03;127307.00;0.42;220.69;;;;;24.30;1.00;;;;;;2270186;61;1825;-88
2021/03/31 17:30:25;339426.00;1.13;585.69;74575.00;0.25;129.67;;;;;24.30;1.00;;;;;;2268432;61;1982;-89
2021/03/31 17:32:53;574918.00;1.92;990.93;147113.00;0.49;254.83;;;;;24.20;1.00;;;;;;2268361;61;1050;-89
2021/03/31 17:35:20;496780.00;1.66;856.28;86691.00;0.29;150.59;;;;;24.10;1.00;;;;;;2268376;61;1368;-88
2021/03/31 17:37:50;380375.00;1.27;656.07;72176.00;0.24;125.52;;;;;24.30;1.00;;;;;;2268358;61;974;-88
2021/03/31 17:40:18;518661.00;1.73;893.96;85903.00;0.29;149.23;;;;;24.20;1.00;;;;;;2268405;61;956;-89
2021/03/31 17:42:44;673546.00;2.25;1161.39;100875.00;0.34;175.08;;;;;24.30;1.00;;;;;;2268388;61;1054;-86
2021/03/31 17:45:12;696385.00;2.32;1200.97;58252.00;0.19;101.45;;;;;24.60;1.00;;;;;;2268366;61;1322;-88
2021/03/31 17:47:39;374473.00;1.25;645.93;0.00;0.00;0.62;;;;;24.70;1.00;;;;;;2268409;61;987;-88
2021/03/31 17:50:09;553547.00;1.85;954.07;87882.00;0.29;152.65;;;;;24.70;1.00;;;;;;2268342;61;1997;-88
2021/03/31 17:52:40;407104.00;1.36;702.02;9029.00;0.03;16.27;;;;;24.80;1.00;;;;;;2268377;61;1121;-88
2021/03/31 17:55:08;447101.00;1.49;770.80;0.00;0.00;0.62;;;;;24.80;1.00;;;;;;2268407;61;1374;-87
2021/03/31 17:57:34;516740.00;1.72;890.65;0.00;0.00;0.62;;;;;24.70;1.00;;;;;;2268457;61;1055;-87
2021/03/31 18:00:01;646584.00;2.16;1114.73;84308.00;0.28;146.48;;;;;24.70;1.00;;;;;;2268491;61;1111;-88
2021/03/31 18:02:28;246385.00;0.82;425.73;0.00;0.00;0.62;;;;;24.70;1.00;;;;;;2268424;61;1145;-87
2021/03/31 18:04:54;289821.00;0.97;500.42;0.00;0.00;0.62;;;;;24.50;1.00;;;;;;2268388;61;1387;-87
2021/03/31 18:07:21;975018.00;3.25;1688.28;132106.00;0.44;228.96;;;;;24.20;1.00;;;;;;2268432;61;981;-88
2021/03/31 18:09:47;686490.00;2.29;1183.82;0.00;0.00;0.62;;;;;24.00;1.00;;;;;;2268299;61;1916;-87
2021/03/31 18:12:14;719496.00;2.40;1241.06;87794.00;0.29;152.50;;;;;23.80;1.00;;;;;;2268345;61;1045;-87
2021/03/31 18:14:40;646678.00;2.16;1114.89;74188.00;0.25;129.00;;;;;23.70;1.00;;;;;;2268303;61;1485;-88
2021/03/31 18:17:06;410341.00;1.37;707.58;73300.00;0.24;127.46;;;;;23.60;1.00;;;;;;2268254;61;1736;-89
2021/03/31 18:19:34;929859.00;3.10;1608.62;127287.00;0.42;220.65;;;;;23.30;1.00;;;;;;2268362;61;1079;-89
2021/03/31 18:22:00;270804.00;0.90;467.73;75567.00;0.25;131.38;;;;;23.10;1.00;;;;;;2268355;61;1125;-89
2021/03/31 18:24:26;390565.00;1.30;673.59;78296.00;0.26;136.09;;;;;22.90;1.00;;;;;;2268343;61;1114;-89
2021/03/31 18:26:53;634186.00;2.11;1093.29;133763.00;0.45;231.82;;;;;22.70;1.00;;;;;;2268211;61;1502;-89
2021/03/31 18:29:19;613354.00;2.04;1057.28;77909.00;0.26;135.43;;;;;22.70;1.00;;;;;;2268221;61;1994;-88
2021/03/31 18:31:46;511969.00;1.71;882.43;80869.00;0.27;140.54;;;;;22.70;1.00;;;;;;2268226;61;1118;-89
2021/03/31 18:34:12;332461.00;1.11;573.72;81040.00;0.27;140.83;;;;;22.50;1.00;;;;;;2268328;61;1018;-88
2021/03/31 18:36:39;471073.00;1.57;812.04;72930.00;0.24;126.82;;;;;22.40;1.00;;;;;;2268330;61;1375;-89
2021/03/31 18:39:06;493183.00;1.64;850.09;99133.00;0.33;172.08;;;;;22.40;1.00;;;;;;2268254;61;1575;-89
2021/03/31 18:41:50;254817.00;0.85;440.24;77333.00;0.26;134.43;;;;;22.30;1.00;;;;;;2268364;61;974;-89
2021/03/31 18:44:17;458992.00;1.53;791.25;61015.00;0.20;106.23;;;;;22.30;1.00;;;;;;2268329;61;1067;-89
2021/03/31 18:46:43;265318.00;0.88;458.29;73611.00;0.25;128.00;;;;;22.20;1.00;;;;;;2268287;61;1429;-89
2021/03/31 18:49:13;310374.00;1.03;535.75;75221.00;0.25;130.78;;;;;22.10;1.00;;;;;;2268276;61;1992;-88
2021/03/31 18:51:42;405486.00;1.35;699.24;77658.00;0.26;134.99;;;;;21.80;1.00;;;;;;2268305;61;1012;-88
2021/03/31 18:54:08;702680.00;2.34;1211.89;105915.00;0.35;183.78;;;;;21.80;1.00;;;;;;2268285;61;1003;-89
2021/03/31 18:56:35;741308.00;2.47;1278.95;79442.00;0.26;138.07;;;;;21.70;1.00;;;;;;2268347;61;1266;-88
2021/03/31 18:59:01;415934.00;1.39;717.20;83089.00;0.28;144.37;;;;;21.60;1.00;;;;;;2268290;61;1015;-89
2021/03/31 19:01:28;486620.00;1.62;838.79;95113.00;0.32;165.14;;;;;21.60;1.00;;;;;;2268298;61;1066;-89
2021/03/31 19:03:54;524860.00;1.75;904.64;76926.00;0.26;133.73;;;;;21.60;1.00;;;;;;2268293;61;918;-90
2021/03/31 19:06:22;682604.00;2.28;1177.08;95172.00;0.32;165.24;;;;;21.50;1.00;;;;;;2268242;61;1412;-88
2021/03/31 19:11:34;754691.00;2.52;1302.22;163567.00;0.55;283.18;;;;;21.50;1.00;;;;;;2260293;61;687;-88
2021/03/31 19:14:02;614344.00;2.05;1058.99;100516.00;0.34;174.46;;;;;21.40;1.00;;;;;;2260237;61;1123;-89
2021/03/31 19:16:28;459773.00;1.53;792.59;67715.00;0.23;117.81;;;;;21.30;1.00;;;;;;2260326;61;1571;-89
2021/03/31 19:18:55;604918.00;2.02;1042.71;76567.00;0.26;133.11;;;;;21.20;1.00;;;;;;2260891;61;1064;-89
2021/03/31 19:21:21;751779.00;2.51;1297.15;87432.00;0.29;151.87;;;;;21.00;1.00;;;;;;2260943;61;1111;-89
2021/03/31 19:23:49;487748.00;1.63;840.73;93375.00;0.31;162.14;;;;;21.00;1.00;;;;;;2260965;61;1069;-88
2021/03/31 19:26:15;430942.00;1.44;743.01;72903.00;0.24;126.78;;;;;20.90;1.00;;;;;;2260818;61;1401;-89
2021/03/31 19:28:42;597678.00;1.99;1030.21;66396.00;0.22;115.53;;;;;20.70;1.00;;;;;;2260864;61;913;-86
2021/03/31 19:31:08;790906.00;2.64;1365.27;76348.00;0.25;132.73;;;;;20.60;1.00;;;;;;2260855;61;1932;-89
2021/03/31 19:33:35;597412.00;1.99;1029.75;72953.00;0.24;126.86;;;;;20.40;1.00;;;;;;2260831;61;1760;-88
2021/03/31 19:36:01;392589.00;1.31;677.07;90181.00;0.30;156.62;;;;;20.40;1.00;;;;;;2260876;61;1406;-88
2021/03/31 19:38:28;444811.00;1.48;766.86;92678.00;0.31;160.93;;;;;20.30;1.00;;;;;;2260860;61;1091;-89
2021/03/31 19:40:55;362992.00;1.21;626.19;71312.00;0.24;124.03;;;;;20.30;1.00;;;;;;2260808;61;1692;-88
2021/03/31 19:43:21;581496.00;1.94;1002.28;76885.00;0.26;133.66;;;;;20.30;1.00;;;;;;2260878;61;1011;-88
2021/03/31 19:45:49;486385.00;1.62;838.39;79261.00;0.26;137.76;;;;;20.30;1.00;;;;;;2260842;61;1378;-89
2021/03/31 19:48:16;422046.00;1.41;727.71;67976.00;0.23;118.26;;;;;20.30;1.00;;;;;;2260879;61;1068;-88
2021/03/31 19:50:44;669056.00;2.23;1153.62;148633.00;0.50;257.45;;;;;20.20;1.00;;;;;;2260864;61;1914;-88
2021/03/31 19:53:15;710248.00;2.37;1225.01;180962.00;0.60;313.15;;;;;20.30;1.00;;;;;;2260768;61;1739;-88
2021/03/31 19:55:42;599150.00;2.00;1032.75;74958.00;0.25;130.33;;;;;20.20;1.00;;;;;;2260636;61;1558;-88
2021/03/31 19:58:10;735781.00;2.45;1269.34;96784.00;0.32;168.02;;;;;20.20;1.00;;;;;;2260752;61;938;-88
2021/03/31 20:00:37;907686.00;3.03;1569.62;103843.00;0.35;180.20;;;;;20.20;1.00;;;;;;2260737;61;1072;-88
2021/03/31 20:03:04;834137.00;2.78;1440.73;73564.00;0.25;127.92;;;;;20.00;1.00;;;;;;2260754;61;1616;-89
2021/03/31 20:05:31;1019651.00;3.40;1767.31;122405.00;0.41;212.23;;;;;19.90;1.00;;;;;;2260776;61;1615;-89
2021/03/31 20:07:58;826262.00;2.75;1426.96;75886.00;0.25;131.93;;;;;19.80;1.00;;;;;;2260719;61;1608;-87
2021/03/31 20:10:25;1038851.00;3.46;1801.40;90237.00;0.30;156.72;;;;;19.70;1.00;;;;;;2260741;61;1989;-88
2021/03/31 20:12:51;1122309.00;3.74;1950.37;256953.00;0.86;443.91;;;;;19.70;1.00;;;;;;2260753;61;1052;-87
2021/03/31 20:15:21;848858.00;2.83;1466.47;80709.00;0.27;140.26;;;;;19.50;1.00;;;;;;2260649;61;1828;-88
2021/03/31 20:17:50;622067.00;2.07;1072.34;78457.00;0.26;136.37;;;;;19.40;1.00;;;;;;2260668;61;1851;-89
2021/03/31 20:20:19;514391.00;1.71;886.60;0.00;0.00;0.62;;;;;19.30;1.00;;;;;;2260692;61;1585;-89
2021/03/31 20:22:45;1021516.00;3.41;1770.62;143641.00;0.48;248.85;;;;;19.20;1.00;;;;;;2260688;61;1582;-89
2021/03/31 20:25:14;678547.00;2.26;1170.06;13292.00;0.04;23.65;;;;;19.20;1.00;;;;;;2260618;61;1414;-89
2021/03/31 20:27:42;638131.00;2.13;1100.11;103593.00;0.35;179.77;;;;;19.10;1.00;;;;;;2260713;61;1095;-88
2021/03/31 20:30:12;535373.00;1.78;922.75;0.00;0.00;0.62;;;;;19.10;1.00;;;;;;2260702;61;1998;-88
2021/03/31 20:32:42;855190.00;2.85;1477.55;0.00;0.00;0.62;;;;;19.20;1.00;;;;;;2260672;61;917;-88
2021/03/31 20:35:10;634548.00;2.12;1093.91;0.00;0.00;0.62;;;;;19.10;1.00;;;;;;2260677;61;1300;-88
2021/03/31 20:37:38;684569.00;2.28;1180.49;0.00;0.00;0.62;;;;;19.00;1.00;;;;;;2260625;61;994;-88
2021/03/31 20:40:07;543727.00;1.81;937.15;20597.00;0.07;36.30;;;;;18.90;1.00;;;;;;2260637;61;1675;-87
2021/03/31 20:42:34;575249.00;1.92;991.50;56853.00;0.19;99.04;;;;;18.70;1.00;;;;;;2260632;61;1775;-88
2021/03/31 20:45:00;726651.00;2.42;1253.49;40287.00;0.13;70.38;;;;;18.90;1.00;;;;;;2260662;61;1400;-89
2021/03/31 20:47:27;449601.00;1.50;775.10;0.00;0.00;0.62;;;;;19.20;1.00;;;;;;2260594;61;1103;-88
2021/03/31 20:49:54;648869.00;2.16;1118.68;10540.00;0.04;18.88;;;;;19.20;1.00;;;;;;2260617;61;1920;-88
2021/03/31 20:52:20;649240.00;2.16;1119.32;4453.00;0.01;8.34;;;;;19.40;1.00;;;;;;2260602;61;1032;-88
2021/03/31 20:54:47;116881312.00;389.60;64678308.00;0.00;0.00;0.62;;;;;19.30;1.00;;;;;;2260591;61;1382;-89
2021/03/31 20:57:13;642667.00;2.14;1107.95;0.00;0.00;0.62;;;;;19.40;1.00;;;;;;2260613;61;955;-88
2021/03/31 20:59:40;355334.00;1.18;613.03;0.00;0.00;0.62;;;;;19.40;1.00;;;;;;2260567;61;1127;-88
2021/03/31 21:02:06;420910.00;1.40;725.76;0.00;0.00;0.62;;;;;19.50;1.00;;;;;;2260592;61;1147;-88
2021/03/31 21:04:36;586291.00;1.95;1010.55;0.00;0.00;0.62;;;;;19.40;1.00;;;;;;2260555;61;996;-88
2021/03/31 21:07:05;636744.00;2.12;1097.71;24683.00;0.08;43.38;;;;;19.30;1.00;;;;;;2260492;61;1207;-88
2021/03/31 21:09:31;545106.00;1.82;939.52;0.00;0.00;0.62;;;;;19.10;1.00;;;;;;2260508;61;1997;-88
2021/03/31 21:12:00;586706.00;1.96;1011.27;55188.00;0.18;96.16;;;;;19.00;1.00;;;;;;2260504;61;1569;-88
2021/03/31 21:14:27;762127.00;2.54;1315.15;0.00;0.00;0.62;;;;;18.90;1.00;;;;;;2260552;61;1027;-88
2021/03/31 21:16:54;650799.00;2.17;1122.02;51096.00;0.17;89.08;;;;;19.00;1.00;;;;;;2260522;61;1309;-89
2021/03/31 21:19:20;735204.00;2.45;1268.34;0.00;0.00;0.62;;;;;19.10;1.00;;;;;;2260464;61;1564;-88
2021/03/31 21:21:47;583506.00;1.95;1005.75;613.00;0.00;1.68;;;;;19.10;1.00;;;;;;2260420;61;1663;-88
2021/03/31 21:24:14;427847.00;1.43;737.68;0.00;0.00;0.62;;;;;19.20;1.00;;;;;;2260467;61;1770;-88
2021/03/31 21:26:41;447613.00;1.49;771.68;0.00;0.00;0.62;;;;;19.00;1.00;;;;;;2260432;61;1405;-88
2021/03/31 21:29:08;307674.00;1.03;531.11;0.00;0.00;0.62;;;;;18.80;1.00;;;;;;2260412;61;1997;-89
2021/03/31 21:31:35;629522.00;2.10;1085.22;0.00;0.00;0.62;;;;;18.60;1.00;;;;;;2260449;61;1157;-87
2021/03/31 21:34:04;909206.00;3.03;1572.29;58406.00;0.19;101.72;;;;;18.30;1.00;;;;;;2260506;61;1053;-88
2021/03/31 21:36:31;553567.00;1.85;954.11;14203.00;0.05;25.23;;;;;18.30;1.00;;;;;;2260432;61;1396;-87
2021/03/31 21:38:58;633231.00;2.11;1091.63;29843.00;0.10;52.31;;;;;18.50;1.00;;;;;;2260348;61;1132;-87
2021/03/31 21:41:26;687454.00;2.29;1185.49;4611.00;0.02;8.61;;;;;18.40;1.00;;;;;;2260406;61;999;-86
2021/03/31 21:43:52;787874.00;2.63;1359.98;8907.00;0.03;16.06;;;;;18.20;1.00;;;;;;2260394;61;1411;-88
2021/03/31 21:46:19;540397.00;1.80;931.41;0.00;0.00;0.62;;;;;18.00;1.00;;;;;;2260420;61;1543;-88
2021/03/31 21:48:47;738262.00;2.46;1273.65;25578.00;0.09;44.93;;;;;18.00;1.00;;;;;;2260423;61;1115;-87
2021/03/31 21:51:14;580451.00;1.93;1000.48;11587.00;0.04;20.70;;;;;18.10;1.00;;;;;;2260387;61;1936;-88
2021/03/31 21:53:42;643908.00;2.15;1110.10;0.00;0.00;0.62;;;;;18.20;1.00;;;;;;2260404;61;1438;-87
2021/03/31 21:56:08;619527.00;2.07;1067.95;28980.00;0.10;50.82;;;;;18.00;1.00;;;;;;2260360;61;1333;-88
2021/03/31 21:58:36;836864.00;2.79;1445.49;40519.00;0.14;70.79;;;;;17.90;1.00;;;;;;2260373;61;1693;-88
2021/03/31 22:01:03;573339.00;1.91;988.21;24520.00;0.08;43.10;;;;;17.90;1.00;;;;;;2260428;61;1122;-86
2021/03/31 22:03:29;358146.00;1.19;617.86;0.00;0.00;0.62;;;;;17.70;1.00;;;;;;2260367;61;1054;-89
2021/03/31 22:05:56;463275.00;1.54;798.62;0.00;0.00;0.62;;;;;17.80;1.00;;;;;;2260372;61;1420;-87
2021/03/31 22:08:24;487819.00;1.63;840.85;0.00;0.00;0.62;;;;;18.00;1.00;;;;;;2260337;61;1616;-88
2021/03/31 22:10:52;422487.00;1.41;728.47;0.00;0.00;0.62;;;;;18.10;1.00;;;;;;2260328;61;1912;-88
2021/03/31 22:13:19;380149.00;1.27;655.68;0.00;0.00;0.62;;;;;17.80;1.00;;;;;;2260420;61;1099;-88
2021/03/31 22:15:46;549368.00;1.83;946.87;8537.00;0.03;15.41;;;;;17.90;1.00;;;;;;2260368;61;1313;-87
2021/03/31 22:18:13;372311.00;1.24;642.21;8151.00;0.03;14.75;;;;;17.80;1.00;;;;;;2260138;61;1667;-88
2021/03/31 22:20:39;329273.00;1.10;568.24;0.00;0.00;0.62;;;;;17.80;1.00;;;;;;2260340;61;1612;-87
2021/03/31 22:23:06;478086.00;1.59;824.10;2520.00;0.01;4.99;;;;;17.70;1.00;;;;;;2260312;61;1596;-87